sensor_id;sensor_type;location;lat;lon;timestamp;pressure;altitude;pressure_sealevel;temperature;humidity
63019;BME280;49105;46.046;10.760;2023-07-24T00:00:45;95692.50;;;19.85;71.25
63019;BME280;49105;46.046;10.760;2023-07-24T00:03:10;95689.81;;;19.85;71.36
63019;BME280;49105;46.046;10.760;2023-07-24T00:05:36;95679.22;;;19.88;71.25
63019;BME280;49105;46.046;10.760;2023-07-24T00:08:01;95681.09;;;19.88;71.28
63019;BME280;49105;46.046;10.760;2023-07-24T00:10:27;95677.75;;;19.91;71.18
63019;BME280;49105;46.046;10.760;2023-07-24T00:12:52;95674.94;;;19.87;71.07
63019;BME280;49105;46.046;10.760;2023-07-24T00:15:18;95683.97;;;19.82;71.35
63019;BME280;49105;46.046;10.760;2023-07-24T00:17:43;95672.78;;;19.80;71.32
63019;BME280;49105;46.046;10.760;2023-07-24T00:20:11;95672.19;;;19.75;71.35
63019;BME280;49105;46.046;10.760;2023-07-24T00:22:40;95672.09;;;19.71;71.40
63019;BME280;49105;46.046;10.760;2023-07-24T00:25:14;95666.00;;;19.62;71.41
63019;BME280;49105;46.046;10.760;2023-07-24T00:27:39;95664.03;;;19.50;71.50
63019;BME280;49105;46.046;10.760;2023-07-24T00:30:05;95663.50;;;19.36;71.73
63019;BME280;49105;46.046;10.760;2023-07-24T00:32:33;95662.38;;;19.37;71.73
63019;BME280;49105;46.046;10.760;2023-07-24T00:34:58;95657.22;;;19.32;71.85
63019;BME280;49105;46.046;10.760;2023-07-24T00:37:27;95660.94;;;19.40;71.86
63019;BME280;49105;46.046;10.760;2023-07-24T00:39:59;95660.31;;;19.43;71.96
63019;BME280;49105;46.046;10.760;2023-07-24T00:42:30;95663.13;;;19.46;71.96
63019;BME280;49105;46.046;10.760;2023-07-24T00:45:05;95655.13;;;19.38;71.80
63019;BME280;49105;46.046;10.760;2023-07-24T00:47:30;95652.97;;;19.31;72.04
63019;BME280;49105;46.046;10.760;2023-07-24T00:49:56;95650.16;;;19.27;71.98
63019;BME280;49105;46.046;10.760;2023-07-24T00:52:25;95659.13;;;19.11;72.30
63019;BME280;49105;46.046;10.760;2023-07-24T00:54:50;95659.91;;;19.11;72.48
63019;BME280;49105;46.046;10.760;2023-07-24T00:57:16;95660.31;;;19.22;72.42
63019;BME280;49105;46.046;10.760;2023-07-24T00:59:41;95656.44;;;19.31;72.10
63019;BME280;49105;46.046;10.760;2023-07-24T01:02:16;95652.19;;;19.30;72.04
63019;BME280;49105;46.046;10.760;2023-07-24T01:04:41;95651.06;;;19.31;72.10
63019;BME280;49105;46.046;10.760;2023-07-24T01:07:12;95650.28;;;19.31;72.14
63019;BME280;49105;46.046;10.760;2023-07-24T01:09:38;95646.47;;;19.32;72.07
63019;BME280;49105;46.046;10.760;2023-07-24T01:15:28;95645.84;;;19.14;72.27
63019;BME280;49105;46.046;10.760;2023-07-24T01:17:59;95649.75;;;19.17;72.31
63019;BME280;49105;46.046;10.760;2023-07-24T01:20:26;95647.53;;;19.19;72.14
63019;BME280;49105;46.046;10.760;2023-07-24T01:25:44;95645.47;;;18.95;72.43
63019;BME280;49105;46.046;10.760;2023-07-24T01:28:22;95640.47;;;18.93;72.52
63019;BME280;49105;46.046;10.760;2023-07-24T01:30:57;95635.03;;;19.02;72.73
63019;BME280;49105;46.046;10.760;2023-07-24T01:33:28;95632.94;;;19.07;72.39
63019;BME280;49105;46.046;10.760;2023-07-24T01:36:00;95635.28;;;19.09;72.47
63019;BME280;49105;46.046;10.760;2023-07-24T01:38:26;95632.28;;;19.11;72.35
63019;BME280;49105;46.046;10.760;2023-07-24T01:40:55;95635.28;;;19.09;72.44
63019;BME280;49105;46.046;10.760;2023-07-24T01:43:27;95635.41;;;19.13;72.43
63019;BME280;49105;46.046;10.760;2023-07-24T01:45:53;95628.16;;;19.13;72.39
63019;BME280;49105;46.046;10.760;2023-07-24T01:48:25;95629.91;;;19.09;72.57
63019;BME280;49105;46.046;10.760;2023-07-24T01:50:50;95629.47;;;19.07;72.56
63019;BME280;49105;46.046;10.760;2023-07-24T01:53:16;95627.28;;;19.00;72.36
63019;BME280;49105;46.046;10.760;2023-07-24T01:55:44;95626.06;;;18.98;72.63
63019;BME280;49105;46.046;10.760;2023-07-24T01:58:15;95630.31;;;18.99;72.62
63019;BME280;49105;46.046;10.760;2023-07-24T02:00:41;95624.03;;;18.95;72.51
63019;BME280;49105;46.046;10.760;2023-07-24T02:03:06;95628.88;;;19.01;72.46
63019;BME280;49105;46.046;10.760;2023-07-24T02:05:48;95620.75;;;18.89;72.00
63019;BME280;49105;46.046;10.760;2023-07-24T02:08:14;95628.91;;;18.63;72.40
63019;BME280;49105;46.046;10.760;2023-07-24T02:10:39;95635.28;;;18.50;72.88
63019;BME280;49105;46.046;10.760;2023-07-24T02:13:11;95626.63;;;18.53;73.03
63019;BME280;49105;46.046;10.760;2023-07-24T02:15:39;95628.66;;;18.56;73.26
63019;BME280;49105;46.046;10.760;2023-07-24T02:18:05;95611.13;;;18.58;73.24
63019;BME280;49105;46.046;10.760;2023-07-24T02:20:30;95612.66;;;18.68;73.32
63019;BME280;49105;46.046;10.760;2023-07-24T02:23:06;95627.34;;;18.62;73.01
63019;BME280;49105;46.046;10.760;2023-07-24T02:25:41;95628.78;;;18.59;73.25
63019;BME280;49105;46.046;10.760;2023-07-24T02:28:08;95625.31;;;18.59;73.39
63019;BME280;49105;46.046;10.760;2023-07-24T02:30:42;95625.50;;;18.54;73.57
63019;BME280;49105;46.046;10.760;2023-07-24T02:33:14;95624.06;;;18.56;73.53
63019;BME280;49105;46.046;10.760;2023-07-24T02:35:39;95627.41;;;18.53;73.37
63019;BME280;49105;46.046;10.760;2023-07-24T02:38:12;95619.72;;;18.43;73.48
63019;BME280;49105;46.046;10.760;2023-07-24T02:40:43;95622.09;;;18.45;73.59
63019;BME280;49105;46.046;10.760;2023-07-24T02:43:21;95619.22;;;18.50;73.61
63019;BME280;49105;46.046;10.760;2023-07-24T02:45:52;95617.94;;;18.56;73.55
63019;BME280;49105;46.046;10.760;2023-07-24T02:48:17;95614.13;;;18.57;73.16
63019;BME280;49105;46.046;10.760;2023-07-24T02:50:54;95619.53;;;18.48;73.11
63019;BME280;49105;46.046;10.760;2023-07-24T02:53:20;95612.50;;;18.35;73.14
63019;BME280;49105;46.046;10.760;2023-07-24T02:55:51;95614.91;;;18.28;73.36
63019;BME280;49105;46.046;10.760;2023-07-24T02:58:26;95615.22;;;18.26;73.24
63019;BME280;49105;46.046;10.760;2023-07-24T03:01:24;95604.50;;;18.26;73.58
63019;BME280;49105;46.046;10.760;2023-07-24T03:03:43;95604.28;;;18.40;73.42
63019;BME280;49105;46.046;10.760;2023-07-24T03:06:08;95609.13;;;18.47;73.76
63019;BME280;49105;46.046;10.760;2023-07-24T03:08:43;95607.53;;;18.54;73.49
63019;BME280;49105;46.046;10.760;2023-07-24T03:11:17;95606.59;;;18.50;73.50
63019;BME280;49105;46.046;10.760;2023-07-24T03:13:52;95604.53;;;18.56;73.26
63019;BME280;49105;46.046;10.760;2023-07-24T03:16:23;95602.50;;;18.53;73.46
63019;BME280;49105;46.046;10.760;2023-07-24T03:18:58;95600.84;;;18.40;73.15
63019;BME280;49105;46.046;10.760;2023-07-24T03:21:32;95587.28;;;18.36;73.35
63019;BME280;49105;46.046;10.760;2023-07-24T03:23:57;95593.38;;;18.45;73.45
63019;BME280;49105;46.046;10.760;2023-07-24T03:26:23;95603.59;;;18.52;73.52
63019;BME280;49105;46.046;10.760;2023-07-24T03:28:54;95600.84;;;18.40;73.09
63019;BME280;49105;46.046;10.760;2023-07-24T03:31:29;95592.38;;;18.29;73.63
63019;BME280;49105;46.046;10.760;2023-07-24T03:33:55;95594.66;;;18.39;73.64
63019;BME280;49105;46.046;10.760;2023-07-24T03:36:23;95601.09;;;18.47;73.25
63019;BME280;49105;46.046;10.760;2023-07-24T03:38:48;95601.47;;;18.37;73.54
63019;BME280;49105;46.046;10.760;2023-07-24T03:41:14;95592.78;;;18.40;73.66
63019;BME280;49105;46.046;10.760;2023-07-24T03:43:48;95574.63;;;18.45;73.64
63019;BME280;49105;46.046;10.760;2023-07-24T03:46:14;95572.09;;;18.49;73.81
63019;BME280;49105;46.046;10.760;2023-07-24T03:48:42;95582.16;;;18.52;73.47
63019;BME280;49105;46.046;10.760;2023-07-24T03:51:13;95579.69;;;18.38;73.25
63019;BME280;49105;46.046;10.760;2023-07-24T03:53:48;95585.59;;;18.31;73.59
63019;BME280;49105;46.046;10.760;2023-07-24T03:56:19;95578.19;;;18.28;73.49
63019;BME280;49105;46.046;10.760;2023-07-24T03:58:51;95569.97;;;18.33;73.67
63019;BME280;49105;46.046;10.760;2023-07-24T04:01:26;95574.19;;;18.34;73.62
63019;BME280;49105;46.046;10.760;2023-07-24T04:03:51;95578.91;;;18.38;73.92
63019;BME280;49105;46.046;10.760;2023-07-24T04:06:20;95581.16;;;18.35;74.16
63019;BME280;49105;46.046;10.760;2023-07-24T04:08:54;95577.22;;;18.33;74.27
63019;BME280;49105;46.046;10.760;2023-07-24T04:11:26;95572.97;;;18.32;74.47
63019;BME280;49105;46.046;10.760;2023-07-24T04:14:01;95566.78;;;18.40;74.35
63019;BME280;49105;46.046;10.760;2023-07-24T04:16:32;95563.56;;;18.47;74.41
63019;BME280;49105;46.046;10.760;2023-07-24T04:19:03;95572.28;;;18.44;74.05
63019;BME280;49105;46.046;10.760;2023-07-24T04:21:29;95571.47;;;18.43;74.13
63019;BME280;49105;46.046;10.760;2023-07-24T04:26:57;95562.59;;;18.51;74.05
63019;BME280;49105;46.046;10.760;2023-07-24T04:29:22;95568.94;;;18.47;74.08
63019;BME280;49105;46.046;10.760;2023-07-24T04:31:53;95568.69;;;18.40;74.54
63019;BME280;49105;46.046;10.760;2023-07-24T04:34:28;95554.34;;;18.35;74.46
63019;BME280;49105;46.046;10.760;2023-07-24T04:36:59;95549.00;;;18.35;74.60
63019;BME280;49105;46.046;10.760;2023-07-24T04:39:27;95555.53;;;18.47;74.65
63019;BME280;49105;46.046;10.760;2023-07-24T04:41:52;95549.66;;;18.53;74.36
63019;BME280;49105;46.046;10.760;2023-07-24T04:44:29;95571.44;;;18.52;74.12
63019;BME280;49105;46.046;10.760;2023-07-24T04:47:03;95580.34;;;18.35;73.75
63019;BME280;49105;46.046;10.760;2023-07-24T04:49:29;95587.00;;;18.29;74.09
63019;BME280;49105;46.046;10.760;2023-07-24T04:51:55;95594.81;;;18.43;74.46
63019;BME280;49105;46.046;10.760;2023-07-24T04:54:26;95594.34;;;18.41;73.95
63019;BME280;49105;46.046;10.760;2023-07-24T04:56:54;95603.66;;;18.34;74.07
63019;BME280;49105;46.046;10.760;2023-07-24T04:59:27;95610.88;;;18.43;74.38
63019;BME280;49105;46.046;10.760;2023-07-24T05:01:53;95615.56;;;18.54;74.22
63019;BME280;49105;46.046;10.760;2023-07-24T05:04:27;95606.19;;;18.69;74.21
63019;BME280;49105;46.046;10.760;2023-07-24T05:06:52;95587.91;;;18.71;74.06
63019;BME280;49105;46.046;10.760;2023-07-24T05:12:02;95592.84;;;18.60;74.24
63019;BME280;49105;46.046;10.760;2023-07-24T05:14:27;95591.91;;;18.56;74.54
63019;BME280;49105;46.046;10.760;2023-07-24T05:17:02;95603.56;;;18.60;74.23
63019;BME280;49105;46.046;10.760;2023-07-24T05:19:27;95595.31;;;18.66;74.39
63019;BME280;49105;46.046;10.760;2023-07-24T05:22:02;95591.22;;;18.68;74.45
63019;BME280;49105;46.046;10.760;2023-07-24T05:24:31;95589.97;;;18.66;74.50
63019;BME280;49105;46.046;10.760;2023-07-24T05:26:57;95585.38;;;18.66;74.75
63019;BME280;49105;46.046;10.760;2023-07-24T05:29:22;95587.13;;;18.71;74.82
63019;BME280;49105;46.046;10.760;2023-07-24T05:31:56;95584.38;;;18.79;74.73
63019;BME280;49105;46.046;10.760;2023-07-24T05:34:33;95563.41;;;18.81;74.26
63019;BME280;49105;46.046;10.760;2023-07-24T05:37:07;95558.47;;;18.83;74.30
63019;BME280;49105;46.046;10.760;2023-07-24T05:39:42;95565.28;;;18.81;74.11
63019;BME280;49105;46.046;10.760;2023-07-24T05:42:14;95571.03;;;18.92;74.19
63019;BME280;49105;46.046;10.760;2023-07-24T05:44:51;95584.25;;;18.97;73.43
63019;BME280;49105;46.046;10.760;2023-07-24T05:47:17;95587.00;;;19.09;73.70
63019;BME280;49105;46.046;10.760;2023-07-24T05:49:43;95602.06;;;19.22;73.50
63019;BME280;49105;46.046;10.760;2023-07-24T05:52:18;95620.97;;;19.26;72.78
63019;BME280;49105;46.046;10.760;2023-07-24T05:54:44;95599.63;;;19.29;72.83
63019;BME280;49105;46.046;10.760;2023-07-24T05:57:10;95586.47;;;19.37;72.81
63019;BME280;49105;46.046;10.760;2023-07-24T05:59:35;95567.66;;;19.37;72.69
63019;BME280;49105;46.046;10.760;2023-07-24T06:02:00;95538.75;;;19.42;72.74
63019;BME280;49105;46.046;10.760;2023-07-24T06:04:35;95535.69;;;19.31;73.07
63019;BME280;49105;46.046;10.760;2023-07-24T06:07:09;95502.31;;;19.20;73.62
63019;BME280;49105;46.046;10.760;2023-07-24T06:09:39;95490.81;;;19.20;73.96
63019;BME280;49105;46.046;10.760;2023-07-24T06:12:13;95476.88;;;19.39;74.40
63019;BME280;49105;46.046;10.760;2023-07-24T06:17:23;95475.84;;;20.01;72.93
63019;BME280;49105;46.046;10.760;2023-07-24T06:19:48;95491.31;;;19.92;72.10
63019;BME280;49105;46.046;10.760;2023-07-24T06:22:14;95486.38;;;19.94;72.18
63019;BME280;49105;46.046;10.760;2023-07-24T06:24:40;95498.56;;;19.91;71.72
63019;BME280;49105;46.046;10.760;2023-07-24T06:27:11;95517.06;;;20.05;72.04
63019;BME280;49105;46.046;10.760;2023-07-24T06:29:43;95505.28;;;20.22;71.79
63019;BME280;49105;46.046;10.760;2023-07-24T06:32:14;95483.66;;;20.30;71.35
63019;BME280;49105;46.046;10.760;2023-07-24T06:34:39;95483.13;;;20.25;71.26
63019;BME280;49105;46.046;10.760;2023-07-24T06:37:05;95479.84;;;20.31;71.41
63019;BME280;49105;46.046;10.760;2023-07-24T06:39:36;95485.00;;;20.37;70.59
63019;BME280;49105;46.046;10.760;2023-07-24T06:42:02;95492.75;;;20.50;70.45
63019;BME280;49105;46.046;10.760;2023-07-24T06:44:33;95502.69;;;20.62;70.34
63019;BME280;49105;46.046;10.760;2023-07-24T06:46:59;95500.78;;;20.63;70.26
63019;BME280;49105;46.046;10.760;2023-07-24T06:49:30;95498.72;;;20.72;70.31
63019;BME280;49105;46.046;10.760;2023-07-24T06:51:56;95514.06;;;20.84;69.58
63019;BME280;49105;46.046;10.760;2023-07-24T06:54:27;95517.97;;;20.86;68.88
63019;BME280;49105;46.046;10.760;2023-07-24T06:56:54;95501.28;;;20.80;68.38
63019;BME280;49105;46.046;10.760;2023-07-24T06:59:28;95503.72;;;20.86;68.29
63019;BME280;49105;46.046;10.760;2023-07-24T07:01:53;95508.53;;;20.92;68.33
63019;BME280;49105;46.046;10.760;2023-07-24T07:04:19;95523.53;;;20.93;68.21
63019;BME280;49105;46.046;10.760;2023-07-24T07:06:47;95533.41;;;20.89;68.35
63019;BME280;49105;46.046;10.760;2023-07-24T07:09:16;95519.41;;;20.96;68.68
63019;BME280;49105;46.046;10.760;2023-07-24T07:11:51;95510.72;;;21.02;68.73
63019;BME280;49105;46.046;10.760;2023-07-24T07:14:23;95511.53;;;21.03;68.37
63019;BME280;49105;46.046;10.760;2023-07-24T07:17:00;95521.59;;;21.06;68.41
63019;BME280;49105;46.046;10.760;2023-07-24T07:19:35;95526.00;;;21.26;68.38
63019;BME280;49105;46.046;10.760;2023-07-24T07:22:01;95530.25;;;21.55;67.70
63019;BME280;49105;46.046;10.760;2023-07-24T07:24:32;95535.16;;;21.66;67.16
63019;BME280;49105;46.046;10.760;2023-07-24T07:27:01;95543.03;;;21.59;67.06
63019;BME280;49105;46.046;10.760;2023-07-24T07:29:29;95558.69;;;21.53;67.13
63019;BME280;49105;46.046;10.760;2023-07-24T07:32:02;95567.34;;;21.46;67.32
63019;BME280;49105;46.046;10.760;2023-07-24T07:34:33;95556.97;;;21.33;67.37
63019;BME280;49105;46.046;10.760;2023-07-24T07:40:05;95515.28;;;21.14;67.72
63019;BME280;49105;46.046;10.760;2023-07-24T07:45:30;95439.84;;;21.11;67.44
63019;BME280;49105;46.046;10.760;2023-07-24T07:47:56;95430.81;;;21.19;67.47
63019;BME280;49105;46.046;10.760;2023-07-24T07:50:27;95411.84;;;21.27;66.96
63019;BME280;49105;46.046;10.760;2023-07-24T07:53:02;95383.72;;;21.41;67.01
63019;BME280;49105;46.046;10.760;2023-07-24T07:55:31;95355.75;;;21.61;67.30
63019;BME280;49105;46.046;10.760;2023-07-24T07:58:01;95361.16;;;21.80;66.76
63019;BME280;49105;46.046;10.760;2023-07-24T08:00:34;95352.41;;;21.84;65.58
63019;BME280;49105;46.046;10.760;2023-07-24T08:02:59;95341.88;;;21.94;65.87
63019;BME280;49105;46.046;10.760;2023-07-24T08:05:34;95341.63;;;22.19;65.61
63019;BME280;49105;46.046;10.760;2023-07-24T08:07:59;95344.69;;;22.56;65.46
63019;BME280;49105;46.046;10.760;2023-07-24T08:10:25;95332.44;;;22.82;64.37
63019;BME280;49105;46.046;10.760;2023-07-24T08:12:50;95322.72;;;22.96;63.80
63019;BME280;49105;46.046;10.760;2023-07-24T08:15:16;95319.34;;;23.03;63.66
63019;BME280;49105;46.046;10.760;2023-07-24T08:17:53;95328.97;;;23.00;62.93
63019;BME280;49105;46.046;10.760;2023-07-24T08:20:25;95337.63;;;22.90;62.38
63019;BME280;49105;46.046;10.760;2023-07-24T08:22:51;95369.00;;;22.79;62.04
63019;BME280;49105;46.046;10.760;2023-07-24T08:25:22;95389.69;;;22.71;62.19
63019;BME280;49105;46.046;10.760;2023-07-24T08:27:48;95407.28;;;22.65;62.44
63019;BME280;49105;46.046;10.760;2023-07-24T08:30:19;95447.47;;;22.51;62.50
63019;BME280;49105;46.046;10.760;2023-07-24T08:32:44;95533.25;;;22.29;62.64
63019;BME280;49105;46.046;10.760;2023-07-24T08:35:10;95585.63;;;22.13;63.38
63019;BME280;49105;46.046;10.760;2023-07-24T08:37:35;95578.47;;;22.04;64.13
63019;BME280;49105;46.046;10.760;2023-07-24T08:40:01;95450.94;;;21.85;65.96
63019;BME280;49105;46.046;10.760;2023-07-24T08:42:28;95218.38;;;21.42;67.90
63019;BME280;49105;46.046;10.760;2023-07-24T08:45:02;95304.34;;;21.03;69.47
63019;BME280;49105;46.046;10.760;2023-07-24T08:47:27;95342.63;;;20.96;70.22
63019;BME280;49105;46.046;10.760;2023-07-24T08:50:03;95398.25;;;20.92;71.47
63019;BME280;49105;46.046;10.760;2023-07-24T08:52:30;95453.06;;;20.88;72.33
63019;BME280;49105;46.046;10.760;2023-07-24T08:54:59;95453.13;;;21.03;72.78
63019;BME280;49105;46.046;10.760;2023-07-24T08:57:35;95427.53;;;21.25;72.86
63019;BME280;49105;46.046;10.760;2023-07-24T09:00:10;95405.75;;;21.30;72.85
63019;BME280;49105;46.046;10.760;2023-07-24T09:02:36;95413.44;;;21.44;73.11
63019;BME280;49105;46.046;10.760;2023-07-24T09:05:01;95413.19;;;21.65;73.01
63019;BME280;49105;46.046;10.760;2023-07-24T09:07:37;95405.84;;;21.82;72.93
63019;BME280;49105;46.046;10.760;2023-07-24T09:10:03;95412.16;;;22.05;72.37
63019;BME280;49105;46.046;10.760;2023-07-24T09:15:40;95451.72;;;22.52;71.59
63019;BME280;49105;46.046;10.760;2023-07-24T09:18:06;95489.31;;;22.45;70.96
63019;BME280;49105;46.046;10.760;2023-07-24T09:20:37;95556.25;;;22.23;70.28
63019;BME280;49105;46.046;10.760;2023-07-24T09:23:15;95613.84;;;22.03;70.76
63019;BME280;49105;46.046;10.760;2023-07-24T09:25:42;95642.69;;;21.87;71.12
63019;BME280;49105;46.046;10.760;2023-07-24T09:28:12;95645.44;;;21.74;71.42
63019;BME280;49105;46.046;10.760;2023-07-24T09:30:38;95617.31;;;21.60;72.33
63019;BME280;49105;46.046;10.760;2023-07-24T09:33:07;95595.88;;;21.35;72.67
63019;BME280;49105;46.046;10.760;2023-07-24T09:35:38;95553.78;;;21.02;74.24
63019;BME280;49105;46.046;10.760;2023-07-24T09:38:13;95504.91;;;20.72;75.69
63019;BME280;49105;46.046;10.760;2023-07-24T09:40:45;95398.94;;;20.61;76.26
63019;BME280;49105;46.046;10.760;2023-07-24T09:43:26;95336.47;;;20.52;76.78
63019;BME280;49105;46.046;10.760;2023-07-24T09:46:01;95343.78;;;20.67;77.35
63019;BME280;49105;46.046;10.760;2023-07-24T09:48:29;95340.53;;;21.05;77.19
63019;BME280;49105;46.046;10.760;2023-07-24T09:50:55;95329.34;;;21.51;76.84
63019;BME280;49105;46.046;10.760;2023-07-24T09:56:00;95356.16;;;21.79;75.03
63019;BME280;49105;46.046;10.760;2023-07-24T09:58:25;95373.94;;;21.84;74.76
63019;BME280;49105;46.046;10.760;2023-07-24T10:00:52;95395.94;;;21.86;74.14
63019;BME280;49105;46.046;10.760;2023-07-24T10:03:18;95400.72;;;21.76;74.13
63019;BME280;49105;46.046;10.760;2023-07-24T10:05:48;95405.69;;;21.74;74.15
63019;BME280;49105;46.046;10.760;2023-07-24T10:08:15;95419.56;;;21.76;74.11
63019;BME280;49105;46.046;10.760;2023-07-24T10:10:47;95428.28;;;21.70;74.49
63019;BME280;49105;46.046;10.760;2023-07-24T10:13:19;95444.25;;;21.63;74.68
63019;BME280;49105;46.046;10.760;2023-07-24T10:15:51;95479.19;;;21.59;74.46
63019;BME280;49105;46.046;10.760;2023-07-24T10:18:16;95540.09;;;21.48;74.70
63019;BME280;49105;46.046;10.760;2023-07-24T10:20:46;95535.19;;;21.38;74.94
63019;BME280;49105;46.046;10.760;2023-07-24T10:23:22;95517.66;;;21.16;75.49
63019;BME280;49105;46.046;10.760;2023-07-24T10:26:01;95543.03;;;21.02;76.36
63019;BME280;49105;46.046;10.760;2023-07-24T10:28:39;95567.38;;;20.94;76.63
63019;BME280;49105;46.046;10.760;2023-07-24T10:31:21;95554.50;;;20.87;78.44
63019;BME280;49105;46.046;10.760;2023-07-24T10:33:47;95546.94;;;20.65;78.89
63019;BME280;49105;46.046;10.760;2023-07-24T10:36:17;95543.47;;;20.52;80.09
63019;BME280;49105;46.046;10.760;2023-07-24T10:38:51;95526.44;;;20.36;80.96
63019;BME280;49105;46.046;10.760;2023-07-24T10:41:17;95512.09;;;20.19;81.83
63019;BME280;49105;46.046;10.760;2023-07-24T10:43:52;95515.03;;;20.14;82.41
63019;BME280;49105;46.046;10.760;2023-07-24T10:46:18;95489.50;;;20.20;82.57
63019;BME280;49105;46.046;10.760;2023-07-24T10:51:47;95446.06;;;20.18;83.10
63019;BME280;49105;46.046;10.760;2023-07-24T10:54:13;95459.91;;;20.32;83.59
63019;BME280;49105;46.046;10.760;2023-07-24T10:56:47;95434.34;;;20.63;83.90
63019;BME280;49105;46.046;10.760;2023-07-24T10:59:22;95427.81;;;20.92;83.53
63019;BME280;49105;46.046;10.760;2023-07-24T11:01:47;95435.59;;;21.10;83.13
63019;BME280;49105;46.046;10.760;2023-07-24T11:04:25;95429.44;;;21.09;83.24
63019;BME280;49105;46.046;10.760;2023-07-24T11:06:53;95392.94;;;20.96;83.02
63019;BME280;49105;46.046;10.760;2023-07-24T11:09:37;95370.53;;;20.76;82.92
63019;BME280;49105;46.046;10.760;2023-07-24T11:12:14;95394.44;;;20.65;83.19
63019;BME280;49105;46.046;10.760;2023-07-24T11:14:55;95474.66;;;20.63;83.20
63019;BME280;49105;46.046;10.760;2023-07-24T11:17:20;95531.59;;;20.53;83.75
63019;BME280;49105;46.046;10.760;2023-07-24T11:19:46;95529.78;;;20.57;84.28
63019;BME280;49105;46.046;10.760;2023-07-24T11:22:21;95504.84;;;20.85;85.21
63019;BME280;49105;46.046;10.760;2023-07-24T11:24:56;95488.28;;;21.39;85.14
63019;BME280;49105;46.046;10.760;2023-07-24T11:27:22;95455.22;;;21.86;84.50
63019;BME280;49105;46.046;10.760;2023-07-24T11:29:48;95443.28;;;22.18;84.09
63019;BME280;49105;46.046;10.760;2023-07-24T11:32:23;95432.69;;;22.45;83.51
63019;BME280;49105;46.046;10.760;2023-07-24T11:34:55;95389.47;;;22.61;82.67
63019;BME280;49105;46.046;10.760;2023-07-24T11:37:21;95362.13;;;22.62;81.02
63019;BME280;49105;46.046;10.760;2023-07-24T11:39:56;95334.59;;;22.72;81.22
63019;BME280;49105;46.046;10.760;2023-07-24T11:42:31;95323.97;;;22.83;81.31
63019;BME280;49105;46.046;10.760;2023-07-24T11:45:00;95324.03;;;22.87;81.33
63019;BME280;49105;46.046;10.760;2023-07-24T11:47:26;95331.22;;;22.79;80.72
63019;BME280;49105;46.046;10.760;2023-07-24T11:50:00;95337.31;;;22.53;79.19
63019;BME280;49105;46.046;10.760;2023-07-24T11:52:36;95344.97;;;22.32;79.39
63019;BME280;49105;46.046;10.760;2023-07-24T11:55:02;95320.94;;;22.23;80.09
63019;BME280;49105;46.046;10.760;2023-07-24T11:57:34;95327.19;;;22.11;79.94
63019;BME280;49105;46.046;10.760;2023-07-24T12:00:16;95349.50;;;21.92;79.68
63019;BME280;49105;46.046;10.760;2023-07-24T12:02:48;95372.66;;;21.77;79.89
63019;BME280;49105;46.046;10.760;2023-07-24T12:05:17;95378.66;;;21.71;80.31
63019;BME280;49105;46.046;10.760;2023-07-24T12:07:55;95403.50;;;21.64;80.65
63019;BME280;49105;46.046;10.760;2023-07-24T12:10:29;95389.53;;;21.59;80.75
63019;BME280;49105;46.046;10.760;2023-07-24T12:12:57;95346.91;;;21.45;80.77
63019;BME280;49105;46.046;10.760;2023-07-24T12:15:32;95358.53;;;21.33;81.00
63019;BME280;49105;46.046;10.760;2023-07-24T12:18:05;95363.03;;;21.29;81.17
63019;BME280;49105;46.046;10.760;2023-07-24T12:20:49;95363.41;;;21.27;80.77
63019;BME280;49105;46.046;10.760;2023-07-24T12:38:13;95418.47;;;20.86;81.07
63019;BME280;49105;46.046;10.760;2023-07-24T12:46:27;95385.88;;;20.75;80.75
63019;BME280;49105;46.046;10.760;2023-07-24T12:57:57;95296.59;;;20.54;80.78
63019;BME280;49105;46.046;10.760;2023-07-24T13:06:43;95328.31;;;20.36;80.59
63019;BME280;49105;46.046;10.760;2023-07-24T13:18:02;95245.59;;;20.29;80.11
63019;BME280;49105;46.046;10.760;2023-07-24T13:20:40;95275.50;;;20.28;79.91
63019;BME280;49105;46.046;10.760;2023-07-24T13:23:06;95307.66;;;20.24;79.80
63019;BME280;49105;46.046;10.760;2023-07-24T13:25:34;95302.50;;;20.19;79.79
63019;BME280;49105;46.046;10.760;2023-07-24T13:28:08;95352.38;;;20.17;79.63
63019;BME280;49105;46.046;10.760;2023-07-24T13:33:31;95417.53;;;20.14;80.10
63019;BME280;49105;46.046;10.760;2023-07-24T13:36:09;95391.66;;;20.09;79.52
63019;BME280;49105;46.046;10.760;2023-07-24T13:41:37;95419.66;;;20.20;79.94
63019;BME280;49105;46.046;10.760;2023-07-24T13:44:03;95350.56;;;20.21;79.66
63019;BME280;49105;46.046;10.760;2023-07-24T13:46:38;95375.31;;;20.14;80.08
63019;BME280;49105;46.046;10.760;2023-07-24T13:52:07;95421.22;;;20.21;80.06
63019;BME280;49105;46.046;10.760;2023-07-24T13:54:43;95397.03;;;20.21;80.36
63019;BME280;49105;46.046;10.760;2023-07-24T14:00:26;95385.72;;;20.16;80.13
63019;BME280;49105;46.046;10.760;2023-07-24T14:03:04;95357.84;;;20.20;80.16
63019;BME280;49105;46.046;10.760;2023-07-24T14:05:30;95325.34;;;20.25;80.46
63019;BME280;49105;46.046;10.760;2023-07-24T14:11:07;95248.91;;;20.39;79.97
63019;BME280;49105;46.046;10.760;2023-07-24T14:46:07;95265.06;;;22.04;74.39
63019;BME280;49105;46.046;10.760;2023-07-24T14:51:51;95254.16;;;21.77;74.13
63019;BME280;49105;46.046;10.760;2023-07-24T15:03:30;95205.84;;;21.88;73.71
63019;BME280;49105;46.046;10.760;2023-07-24T15:08:59;95189.19;;;22.02;74.12
63019;BME280;49105;46.046;10.760;2023-07-24T15:11:54;95188.91;;;22.07;74.05
63019;BME280;49105;46.046;10.760;2023-07-24T15:20:39;95198.91;;;22.07;73.47
63019;BME280;49105;46.046;10.760;2023-07-24T15:26:13;95194.75;;;21.90;73.59
63019;BME280;49105;46.046;10.760;2023-07-24T15:31:51;95135.41;;;21.47;74.70
63019;BME280;49105;46.046;10.760;2023-07-24T15:37:37;95150.44;;;21.13;75.93